LFJR

Details ICAO LFJR (ANE)
Name Angers Marce
Region France
Timezone Europe/Paris (UTC+1.0)
Plans Departing 41
Arriving 26
Stats Elevation 194 ft / 59 m (AMSL)
Location 47.559822° -0.312207°
Runways 3
Magnetic Variation 0.137° W
Sunrise 2017-12-12 07:41:32 UTC / 2017-12-12 08:41:32 Local
Sunset 2017-12-12 16:11:17 UTC / 2017-12-12 17:11:17 Local
Advertisement - Login to hide

Runways

ID Width Length Bearing (true) Bearing (mag) Surface Threshold Offset Overrun Length
08 135 ft / 41 m 5,405 ft / 1,647 m 80.99° 81.13° Asphalt 120 ft / 37 m 0 ft / 0 m
08L 135 ft / 41 m 2,131 ft / 650 m 81.00° 81.14° Grass 0 ft / 0 m 0 ft / 0 m
08R 300 ft / 91 m 3,303 ft / 1,007 m 81.00° 81.14° Grass 0 ft / 0 m 0 ft / 0 m
26 135 ft / 41 m 5,405 ft / 1,647 m 261.01° 261.15° Asphalt 250 ft / 76 m 0 ft / 0 m
26L 300 ft / 91 m 3,303 ft / 1,007 m 261.00° 261.14° Grass 0 ft / 0 m 0 ft / 0 m
26R 135 ft / 41 m 2,131 ft / 650 m 261.00° 261.14° Grass 0 ft / 0 m 0 ft / 0 m

Approach Navaids

Runway Type Ident Frequency Range Bearing (true) Bearing (mag) Slope Elevation
26 Localiser AS 108.90 MHz 18 nm / 33 km 261.07° 261.21° - 194 ft / 59 m (AMSL)

Map

Weather


0- 5 10 15 20 25 30 35+ Temperature / ° C

Clouds and Precipitation
Forecast for 2017-12-12 12:00 UTC. Updated an hour ago

Ground ~20,000 ft ~40,000 ft Winds

METAR

LFJR 121230Z AUTO 23009KT CAVOK 08/02 Q1014 NOSIG

TAF

Not found
Warning: Do not use this data for real-world aviation or navigation. No guarantee of current accuracy is given.